Time;durP1;ratioP1;P1;durP2;ratioP2;P2;SDS_P1;SDS_P2;PMS_P1;PMS_P2;Temp;Humidity;BMP_temperature;BMP_pressure;BME280_temperature;BME280_humidity;BME280_pressure;Samples;Min_cycle;Max_cycle;Signal;HPM_P1;HPM_P2
2022/08/24 00:00:12;;;;;;;;;;;;;;;19.87;56.04;100763.81;5052774;28;19970;-75
2022/08/24 00:03:15;;;;;;;;;;;;;;;19.76;56.52;100771.06;5052206;28;19919;-75
2022/08/24 00:06:19;;;;;;;;;;;;;;;19.67;56.99;100762.06;5051630;28;19924;-75
2022/08/24 00:09:22;;;;;;;;;;;;;;;19.66;56.54;100766.53;5051942;28;19939;-75
2022/08/24 00:12:26;;;;;;;;;;;;;;;19.55;56.37;100761.28;5051485;28;19923;-76
2022/08/24 00:15:31;;;;;;;;;;;;;;;19.62;56.26;100765.09;5052171;28;19920;-75
2022/08/24 00:18:34;;;;;;;;;;;;;;;19.61;56.50;100766.06;5052174;28;19920;-75
2022/08/24 00:21:37;;;;;;;;;;;;;;;19.62;56.40;100757.16;5051979;28;19924;-74
2022/08/24 00:24:40;;;;;;;;;;;;;;;19.53;55.67;100763.25;5050847;28;19920;-74
2022/08/24 00:27:44;;;;;;;;;;;;;;;19.45;55.84;100771.84;5051391;28;19931;-74
2022/08/24 00:30:48;;;;;;;;;;;;;;;19.25;56.56;100762.09;5051651;28;19915;-76
2022/08/24 00:33:52;;;;;;;;;;;;;;;19.13;57.75;100765.78;5051614;28;20008;-75
2022/08/24 00:36:55;;;;;;;;;;;;;;;19.20;57.04;100761.66;5051878;28;19949;-75
2022/08/24 00:39:58;;;;;;;;;;;;;;;19.35;56.48;100772.78;5050900;28;19990;-74
2022/08/24 00:43:03;;;;;;;;;;;;;;;19.44;56.27;100766.69;5050846;28;20326;-75
2022/08/24 00:46:09;;;;;;;;;;;;;;;19.41;56.56;100772.25;5049073;28;19958;-75
2022/08/24 00:49:22;;;;;;;;;;;;;;;19.44;56.46;100766.69;5049832;28;19949;-75
2022/08/24 00:52:28;;;;;;;;;;;;;;;19.36;55.96;100777.09;5050495;28;19923;-75
2022/08/24 00:55:34;;;;;;;;;;;;;;;19.36;56.13;100774.44;5050516;28;20413;-75
2022/08/24 00:58:43;;;;;;;;;;;;;;;19.21;57.10;100772.13;5038502;28;20543;-75
2022/08/24 01:01:47;;;;;;;;;;;;;;;19.08;57.72;100771.50;5038188;28;20403;-75
2022/08/24 01:04:53;;;;;;;;;;;;;;;19.16;57.31;100774.31;5037759;28;19923;-75
2022/08/24 01:07:56;;;;;;;;;;;;;;;19.08;57.53;100775.94;5050507;28;19919;-75
2022/08/24 01:11:01;;;;;;;;;;;;;;;19.09;57.64;100772.31;5050335;28;19919;-75
2022/08/24 01:14:05;;;;;;;;;;;;;;;19.05;57.75;100777.88;5050472;28;19963;-75
2022/08/24 01:20:30;;;;;;;;;;;;;;;19.06;57.29;100784.03;5038439;28;19920;-74
2022/08/24 01:23:40;;;;;;;;;;;;;;;18.90;57.69;100784.47;5038786;28;20057;-74
2022/08/24 01:26:46;;;;;;;;;;;;;;;18.80;58.17;100791.50;5038231;28;19920;-74
2022/08/24 01:29:49;;;;;;;;;;;;;;;18.78;57.74;100794.25;5038592;28;20588;-75
2022/08/24 01:32:56;;;;;;;;;;;;;;;18.89;57.35;100785.44;5037794;28;20023;-75
2022/08/24 01:36:06;;;;;;;;;;;;;;;18.88;57.99;100796.16;5050168;28;20454;-74
2022/08/24 01:39:14;;;;;;;;;;;;;;;18.85;58.33;100801.69;5037801;28;19987;-74
2022/08/24 01:42:17;;;;;;;;;;;;;;;18.83;58.33;100793.91;5037481;28;19959;-74
2022/08/24 01:45:20;;;;;;;;;;;;;;;18.79;58.05;100790.66;5049630;28;19962;-75
2022/08/24 01:48:23;;;;;;;;;;;;;;;18.73;58.28;100804.41;5037753;28;19920;-75
2022/08/24 01:51:30;;;;;;;;;;;;;;;18.74;58.54;100799.94;5037539;28;19919;-75
2022/08/24 01:54:33;;;;;;;;;;;;;;;18.66;58.69;100799.69;5037705;28;19919;-74
2022/08/24 01:57:36;;;;;;;;;;;;;;;18.48;59.33;100796.75;5038082;28;19977;-74
2022/08/24 02:00:41;;;;;;;;;;;;;;;18.50;59.04;100797.44;5037883;28;19962;-74
2022/08/24 02:03:44;;;;;;;;;;;;;;;18.55;59.03;100801.41;5049804;28;19963;-74
2022/08/24 02:06:48;;;;;;;;;;;;;;;18.51;58.77;100807.94;5037125;28;19919;-74
2022/08/24 02:09:52;;;;;;;;;;;;;;;18.40;59.72;100801.81;5036989;28;19928;-74
2022/08/24 02:12:58;;;;;;;;;;;;;;;18.49;59.54;100809.84;5035785;28;19970;-75
2022/08/24 02:16:02;;;;;;;;;;;;;;;18.50;59.45;100808.88;5037018;28;19920;-74
2022/08/24 02:19:08;;;;;;;;;;;;;;;18.53;59.22;100813.09;5037800;28;19920;-74
2022/08/24 02:22:11;;;;;;;;;;;;;;;18.25;59.52;100810.03;5049851;28;19970;-74
2022/08/24 02:25:15;;;;;;;;;;;;;;;18.31;59.29;100816.63;5036761;28;20267;-75
2022/08/24 02:28:19;;;;;;;;;;;;;;;18.34;58.76;100814.56;5049051;28;19915;-75
2022/08/24 02:31:24;;;;;;;;;;;;;;;18.20;59.20;100821.94;5036763;28;19963;-74
2022/08/24 02:34:27;;;;;;;;;;;;;;;18.19;59.57;100818.47;5037012;28;19932;-76
2022/08/24 02:37:30;;;;;;;;;;;;;;;18.09;60.04;100825.44;5037720;28;20340;-75
2022/08/24 02:40:34;;;;;;;;;;;;;;;18.19;59.67;100817.59;5037408;28;19919;-75
2022/08/24 02:43:37;;;;;;;;;;;;;;;18.10;59.92;100821.84;5036750;28;19958;-75
2022/08/24 02:46:41;;;;;;;;;;;;;;;18.01;60.13;100822.56;5036586;28;20525;-75
2022/08/24 02:49:47;;;;;;;;;;;;;;;17.98;60.31;100822.81;5040324;28;20051;-75
2022/08/24 02:52:51;;;;;;;;;;;;;;;18.01;60.10;100830.50;5040719;28;19923;-75
2022/08/24 02:56:20;;;;;;;;;;;;;;;18.04;59.93;100831.09;5040992;28;19919;-75
2022/08/24 02:59:23;;;;;;;;;;;;;;;18.05;60.09;100834.56;5040908;28;20636;-75
2022/08/24 03:02:27;;;;;;;;;;;;;;;18.14;59.68;100833.84;5040326;28;19920;-75
2022/08/24 03:05:32;;;;;;;;;;;;;;;17.96;59.97;100830.84;5039350;28;19932;-74
2022/08/24 03:08:36;;;;;;;;;;;;;;;17.78;60.63;100838.44;5038304;28;19955;-75
2022/08/24 03:11:40;;;;;;;;;;;;;;;17.95;60.58;100828.34;5040071;28;19962;-74
2022/08/24 03:14:44;;;;;;;;;;;;;;;17.97;60.52;100837.00;5040571;28;19935;-74
2022/08/24 03:17:47;;;;;;;;;;;;;;;17.92;60.16;100834.69;5040868;28;20746;-74
2022/08/24 03:20:52;;;;;;;;;;;;;;;17.95;60.17;100833.63;5040623;28;19919;-74
2022/08/24 03:23:55;;;;;;;;;;;;;;;17.90;60.29;100831.34;5040115;28;20031;-74
2022/08/24 03:26:59;;;;;;;;;;;;;;;17.84;60.26;100832.66;5039765;28;19966;-74
2022/08/24 03:30:03;;;;;;;;;;;;;;;17.85;60.06;100834.34;5040088;28;19920;-74
2022/08/24 03:33:07;;;;;;;;;;;;;;;17.72;60.59;100830.94;5040598;28;19963;-74
2022/08/24 03:36:10;;;;;;;;;;;;;;;17.67;60.96;100830.44;5052906;28;19931;-74
2022/08/24 03:39:13;;;;;;;;;;;;;;;17.62;60.96;100824.69;5039641;28;19919;-74
2022/08/24 03:42:17;;;;;;;;;;;;;;;17.54;61.15;100829.69;5039612;28;19955;-74
2022/08/24 03:45:21;;;;;;;;;;;;;;;17.56;61.13;100822.50;5051772;28;19919;-74
2022/08/24 03:48:24;;;;;;;;;;;;;;;17.44;61.27;100827.75;5051855;28;19966;-74
2022/08/24 03:51:28;;;;;;;;;;;;;;;17.42;61.14;100832.34;5052325;28;20443;-74
2022/08/24 03:54:32;;;;;;;;;;;;;;;17.34;61.64;100833.88;5052354;28;19963;-75
2022/08/24 03:57:35;;;;;;;;;;;;;;;17.39;61.77;100837.03;5039706;28;19974;-75
2022/08/24 04:00:41;;;;;;;;;;;;;;;17.35;62.17;100835.53;5038284;28;19934;-74
2022/08/24 04:03:47;;;;;;;;;;;;;;;17.47;61.64;100828.50;5038874;28;20538;-74
2022/08/24 04:06:51;;;;;;;;;;;;;;;17.46;61.44;100832.09;5038507;28;19919;-74
2022/08/24 04:09:54;;;;;;;;;;;;;;;17.39;61.60;100832.56;5039414;28;19919;-75
2022/08/24 04:13:00;;;;;;;;;;;;;;;17.26;61.87;100831.81;5039795;28;19959;-74
2022/08/24 04:16:04;;;;;;;;;;;;;;;17.36;61.66;100830.16;5039820;28;19967;-75
2022/08/24 04:19:07;;;;;;;;;;;;;;;17.38;61.62;100827.38;5039669;28;20674;-74
2022/08/24 04:22:11;;;;;;;;;;;;;;;17.34;61.84;100828.59;5039181;28;20587;-74
2022/08/24 04:25:13;;;;;;;;;;;;;;;17.22;61.87;100845.34;5038540;28;20007;-75
2022/08/24 04:28:18;;;;;;;;;;;;;;;17.02;63.19;100833.66;5038769;28;19961;-74
2022/08/24 04:31:22;;;;;;;;;;;;;;;16.82;63.74;100835.97;5051920;28;19919;-74
2022/08/24 04:34:26;;;;;;;;;;;;;;;16.64;64.17;100842.56;5039198;28;20050;-74
2022/08/24 04:37:30;;;;;;;;;;;;;;;16.65;64.38;100849.50;5038599;28;19919;-74
2022/08/24 04:40:33;;;;;;;;;;;;;;;16.55;64.60;100851.13;5050214;28;19935;-74
2022/08/24 04:43:38;;;;;;;;;;;;;;;16.42;65.02;100851.16;5038740;28;19911;-75
2022/08/24 04:46:41;;;;;;;;;;;;;;;16.39;65.25;100854.88;5038409;28;19923;-74
2022/08/24 04:49:45;;;;;;;;;;;;;;;16.48;65.13;100853.38;5038896;28;19978;-74
2022/08/24 04:52:49;;;;;;;;;;;;;;;16.46;65.36;100847.34;5038780;28;19967;-74
2022/08/24 04:55:53;;;;;;;;;;;;;;;16.46;65.53;100858.78;5038956;28;20053;-73
2022/08/24 04:58:56;;;;;;;;;;;;;;;16.47;65.47;100862.25;5050721;28;19927;-74
2022/08/24 05:01:59;;;;;;;;;;;;;;;16.62;64.87;100862.94;5050548;28;19919;-74
2022/08/24 05:05:03;;;;;;;;;;;;;;;16.49;65.11;100869.09;5036914;28;20379;-74
2022/08/24 05:08:07;;;;;;;;;;;;;;;16.55;64.84;100872.25;5047018;28;19969;-74
2022/08/24 05:11:10;;;;;;;;;;;;;;;16.56;65.28;100871.28;5042886;28;19927;-74
2022/08/24 05:14:14;;;;;;;;;;;;;;;16.60;65.50;100875.41;5037413;28;19942;-74
2022/08/24 05:17:18;;;;;;;;;;;;;;;16.63;65.42;100881.31;5024456;28;20595;-74
2022/08/24 05:20:21;;;;;;;;;;;;;;;16.65;65.53;100879.38;5037331;28;19963;-74
2022/08/24 05:23:29;;;;;;;;;;;;;;;16.75;65.43;100882.22;5036258;28;20291;-74
2022/08/24 05:26:33;;;;;;;;;;;;;;;16.72;65.19;100874.53;5048137;28;19919;-74
2022/08/24 05:29:36;;;;;;;;;;;;;;;16.61;65.31;100879.72;5036374;28;19920;-73
2022/08/24 05:32:40;;;;;;;;;;;;;;;16.68;64.55;100883.59;5036802;28;19923;-73
2022/08/24 05:35:43;;;;;;;;;;;;;;;16.78;63.86;100884.66;5036084;28;19982;-74
2022/08/24 05:38:48;;;;;;;;;;;;;;;16.85;63.95;100879.78;5048032;28;19923;-74
2022/08/24 05:41:51;;;;;;;;;;;;;;;16.85;64.10;100885.09;5035823;28;19923;-75
2022/08/24 05:45:00;;;;;;;;;;;;;;;16.82;64.21;100880.84;5035482;28;19975;-74
2022/08/24 05:48:04;;;;;;;;;;;;;;;17.06;63.42;100877.38;5035483;28;20386;-74
2022/08/24 05:51:25;;;;;;;;;;;;;;;17.23;62.18;100887.53;5048104;28;20019;-75
2022/08/24 05:54:37;;;;;;;;;;;;;;;17.43;60.77;100871.03;5036068;28;19951;-75
2022/08/24 05:57:42;;;;;;;;;;;;;;;17.43;60.34;100881.59;5035525;28;19923;-74
2022/08/24 06:00:53;;;;;;;;;;;;;;;17.36;61.82;100880.38;5036053;28;20237;-74
2022/08/24 06:03:57;;;;;;;;;;;;;;;17.34;62.43;100878.81;5035353;28;19924;-74
2022/08/24 06:07:01;;;;;;;;;;;;;;;17.44;61.51;100880.63;5015656;28;19920;-74
2022/08/24 06:10:05;;;;;;;;;;;;;;;17.52;61.26;100877.41;5015507;28;19920;-76
2022/08/24 06:13:09;;;;;;;;;;;;;;;17.64;60.77;100872.97;5016541;28;20024;-74
2022/08/24 06:16:13;;;;;;;;;;;;;;;17.64;60.85;100875.63;5018041;28;20244;-75
2022/08/24 06:19:18;;;;;;;;;;;;;;;17.92;59.91;100877.03;5017518;28;19920;-74
2022/08/24 06:22:21;;;;;;;;;;;;;;;17.95;59.34;100881.25;5017158;28;19920;-74
2022/08/24 06:28:47;;;;;;;;;;;;;;;17.99;60.32;100880.03;5021969;28;20035;-74
2022/08/24 06:31:50;;;;;;;;;;;;;;;17.98;60.53;100886.28;5021685;28;19974;-74
2022/08/24 06:34:54;;;;;;;;;;;;;;;18.06;60.63;100889.16;5020292;28;19975;-74
2022/08/24 06:37:58;;;;;;;;;;;;;;;18.09;59.68;100889.81;5039031;28;19919;-74
2022/08/24 06:41:01;;;;;;;;;;;;;;;18.22;59.83;100886.16;5053215;28;19924;-74
2022/08/24 06:44:05;;;;;;;;;;;;;;;17.95;61.22;100889.19;5041319;28;19920;-74
2022/08/24 06:47:21;;;;;;;;;;;;;;;18.17;60.51;100886.53;5040653;28;20089;-74
2022/08/24 06:50:29;;;;;;;;;;;;;;;18.29;60.33;100884.75;5040669;28;19919;-74
2022/08/24 06:53:33;;;;;;;;;;;;;;;18.44;59.08;100893.25;5040842;28;20341;-74
2022/08/24 06:56:37;;;;;;;;;;;;;;;18.41;59.38;100888.22;5053378;28;19920;-74
2022/08/24 06:59:41;;;;;;;;;;;;;;;18.45;59.77;100889.66;5040963;28;20422;-73
2022/08/24 07:02:45;;;;;;;;;;;;;;;18.58;59.53;100887.72;5034149;28;19961;-74
2022/08/24 07:05:49;;;;;;;;;;;;;;;18.65;59.41;100886.25;5019659;28;19975;-75
2022/08/24 07:09:00;;;;;;;;;;;;;;;18.74;59.86;100892.66;5030483;28;20414;-75
2022/08/24 07:12:03;;;;;;;;;;;;;;;18.83;59.72;100893.72;5019304;28;19924;-74
2022/08/24 07:15:07;;;;;;;;;;;;;;;18.91;59.63;100897.41;5019005;28;19967;-74
2022/08/24 07:18:15;;;;;;;;;;;;;;;18.94;59.61;100896.34;5055720;28;19962;-75
2022/08/24 07:21:22;;;;;;;;;;;;;;;19.09;59.40;100905.69;5039574;28;19966;-75
2022/08/24 07:24:26;;;;;;;;;;;;;;;19.31;58.29;100904.75;5039364;28;20051;-75
2022/08/24 07:27:32;;;;;;;;;;;;;;;19.39;58.65;100902.28;5043595;28;20003;-74
2022/08/24 07:30:35;;;;;;;;;;;;;;;19.44;58.92;100904.56;5068834;28;19935;-75
2022/08/24 07:33:38;;;;;;;;;;;;;;;19.53;58.58;100911.78;5074627;28;19923;-75
2022/08/24 07:36:43;;;;;;;;;;;;;;;19.64;57.76;100905.59;5049068;28;19947;-74
2022/08/24 07:39:46;;;;;;;;;;;;;;;19.76;57.22;100899.25;5040292;28;19969;-75
2022/08/24 07:42:52;;;;;;;;;;;;;;;19.95;56.81;100894.03;5039761;28;19919;-74
2022/08/24 07:45:55;;;;;;;;;;;;;;;20.12;56.13;100886.44;5039989;28;20000;-76
2022/08/24 07:48:58;;;;;;;;;;;;;;;20.26;55.10;100887.88;5040205;28;19920;-75
2022/08/24 07:52:03;;;;;;;;;;;;;;;20.34;55.27;100888.91;5040447;28;19923;-74
2022/08/24 07:55:07;;;;;;;;;;;;;;;20.48;54.75;100892.97;5039740;28;20063;-75
2022/08/24 07:58:11;;;;;;;;;;;;;;;20.44;54.42;100894.25;5039598;28;19915;-75
2022/08/24 08:01:16;;;;;;;;;;;;;;;20.51;54.50;100895.41;5039463;28;19935;-76
2022/08/24 08:04:23;;;;;;;;;;;;;;;20.66;54.53;100903.84;5039401;28;20013;-74
2022/08/24 08:07:26;;;;;;;;;;;;;;;20.83;53.61;100903.16;5039348;28;20004;-74
2022/08/24 08:10:30;;;;;;;;;;;;;;;20.88;53.31;100895.63;5052721;28;20091;-73
2022/08/24 08:13:34;;;;;;;;;;;;;;;20.98;53.62;100903.63;5039955;28;19920;-73
2022/08/24 08:16:38;;;;;;;;;;;;;;;21.01;53.68;100900.69;5039180;28;19955;-74
2022/08/24 08:19:42;;;;;;;;;;;;;;;21.14;52.60;100903.06;5039482;28;20371;-73
2022/08/24 08:26:19;;;;;;;;;;;;;;;21.29;52.76;100901.69;5051951;28;19950;-73
2022/08/24 08:29:46;;;;;;;;;;;;;;;21.54;52.07;100899.47;5039505;28;19966;-73
2022/08/24 08:32:52;;;;;;;;;;;;;;;21.63;52.40;100898.56;5038772;28;20301;-72
2022/08/24 08:36:03;;;;;;;;;;;;;;;21.71;51.75;100890.72;5061971;28;20378;-74
2022/08/24 08:39:07;;;;;;;;;;;;;;;21.80;51.62;100897.03;5050677;28;19952;-73
2022/08/24 08:42:26;;;;;;;;;;;;;;;21.83;51.97;100891.41;5064126;28;19920;-73
2022/08/24 08:45:30;;;;;;;;;;;;;;;22.06;51.05;100894.56;5063640;28;20001;-72
2022/08/24 08:49:09;;;;;;;;;;;;;;;22.26;50.26;100879.38;5053234;28;19919;-72
2022/08/24 08:52:23;;;;;;;;;;;;;;;22.39;49.21;100885.19;5053347;28;19923;-73
2022/08/24 08:55:30;;;;;;;;;;;;;;;22.50;49.79;100887.66;5064701;28;19935;-73
2022/08/24 08:58:54;;;;;;;;;;;;;;;22.51;49.58;100877.84;5063468;28;19958;-73
2022/08/24 09:02:17;;;;;;;;;;;;;;;22.43;49.65;100878.59;5052331;28;20003;-73
2022/08/24 09:05:46;;;;;;;;;;;;;;;22.42;49.57;100881.38;5052665;28;20001;-73
2022/08/24 09:08:56;;;;;;;;;;;;;;;22.53;49.40;100875.88;5060390;28;19981;-73
2022/08/24 09:12:18;;;;;;;;;;;;;;;22.50;48.90;100865.50;5072589;28;20476;-73
2022/08/24 09:15:41;;;;;;;;;;;;;;;22.73;48.88;100866.75;5085419;28;19923;-73
2022/08/24 09:19:03;;;;;;;;;;;;;;;22.92;48.41;100867.59;5062073;28;19919;-73
2022/08/24 09:22:10;;;;;;;;;;;;;;;22.87;48.08;100875.22;5061868;28;19920;-73
2022/08/24 09:25:27;;;;;;;;;;;;;;;22.81;48.39;100860.66;5061701;28;19966;-73
2022/08/24 09:28:57;;;;;;;;;;;;;;;22.97;48.36;100862.66;5073103;28;19920;-72
2022/08/24 09:32:10;;;;;;;;;;;;;;;23.15;48.09;100858.16;5073055;28;19927;-73
2022/08/24 09:35:14;;;;;;;;;;;;;;;23.22;47.79;100861.06;5067600;28;20078;-72
2022/08/24 09:38:33;;;;;;;;;;;;;;;23.49;47.36;100856.63;5033839;28;19919;-72
2022/08/24 09:42:07;;;;;;;;;;;;;;;23.47;47.00;100854.09;5033877;28;20323;-72
2022/08/24 09:45:30;;;;;;;;;;;;;;;23.44;47.41;100849.06;5033661;28;20426;-72
2022/08/24 09:48:39;;;;;;;;;;;;;;;23.49;47.89;100843.28;5033870;28;19919;-72
2022/08/24 09:52:02;;;;;;;;;;;;;;;23.42;47.78;100849.22;5033207;28;19923;-72
2022/08/24 09:55:05;;;;;;;;;;;;;;;23.76;47.00;100847.63;5033538;28;19920;-72
2022/08/24 09:58:26;;;;;;;;;;;;;;;23.84;46.99;100848.53;5033288;28;19920;-72
2022/08/24 10:01:33;;;;;;;;;;;;;;;23.81;47.12;100840.81;5033403;28;19990;-72
2022/08/24 10:04:55;;;;;;;;;;;;;;;23.97;46.44;100834.72;5041192;28;19962;-72
2022/08/24 10:08:07;;;;;;;;;;;;;;;24.09;46.71;100827.25;5049947;28;19927;-73
2022/08/24 10:11:28;;;;;;;;;;;;;;;24.09;46.37;100828.13;5049716;28;19951;-72
2022/08/24 10:14:44;;;;;;;;;;;;;;;24.33;45.74;100816.66;5038003;28;19923;-72
2022/08/24 10:18:03;;;;;;;;;;;;;;;24.33;45.72;100816.66;5050605;28;20248;-73
2022/08/24 10:21:37;;;;;;;;;;;;;;;24.61;44.54;100810.25;5049730;28;20669;-72
2022/08/24 10:25:00;;;;;;;;;;;;;;;24.79;43.86;100810.91;5049837;28;19923;-73
2022/08/24 10:28:10;;;;;;;;;;;;;;;24.95;42.34;100807.44;5050111;28;19919;-72
2022/08/24 10:31:19;;;;;;;;;;;;;;;25.41;42.05;100800.56;5049982;28;20016;-73
2022/08/24 10:34:33;;;;;;;;;;;;;;;25.46;41.98;100794.69;5049810;28;19979;-73
2022/08/24 10:39:39;;;;;;;;;;;;;;;25.12;42.51;100801.13;5050734;28;20408;-72
2022/08/24 10:41:33;;;;;;;;;;;;;;;25.16;42.17;100794.41;5052288;28;19959;-72
2022/08/24 10:44:45;;;;;;;;;;;;;;;24.97;42.53;100784.03;5052956;28;20318;-74
2022/08/24 10:48:03;;;;;;;;;;;;;;;24.99;43.02;100784.72;5052913;28;19920;-72
2022/08/24 10:51:22;;;;;;;;;;;;;;;24.93;42.97;100780.03;5052022;28;20047;-72
2022/08/24 10:54:26;;;;;;;;;;;;;;;24.94;43.19;100779.00;5051988;28;19927;-72
2022/08/24 10:57:45;;;;;;;;;;;;;;;25.13;42.28;100781.38;5052632;28;20371;-72
2022/08/24 11:01:11;;;;;;;;;;;;;;;25.28;41.94;100781.53;5052792;28;20371;-72
2022/08/24 11:04:26;;;;;;;;;;;;;;;25.24;41.16;100783.72;5052992;28;20371;-73
2022/08/24 11:07:29;;;;;;;;;;;;;;;25.81;40.33;100777.38;5053083;28;19919;-72
2022/08/24 11:10:34;;;;;;;;;;;;;;;26.10;37.84;100774.09;5055757;28;19920;-73
2022/08/24 11:13:52;;;;;;;;;;;;;;;26.09;38.68;100768.91;5056695;28;19923;-73
2022/08/24 11:17:14;;;;;;;;;;;;;;;25.62;39.70;100775.06;5056990;28;20008;-72
2022/08/24 11:20:32;;;;;;;;;;;;;;;25.57;39.31;100764.91;5056699;28;20069;-72
2022/08/24 11:23:35;;;;;;;;;;;;;;;25.82;37.89;100768.34;5056550;28;19919;-73
2022/08/24 11:26:56;;;;;;;;;;;;;;;25.71;37.92;100768.69;5056302;28;19920;-72
2022/08/24 11:30:06;;;;;;;;;;;;;;;26.02;36.96;100755.38;5056493;28;19919;-73
2022/08/24 11:33:28;;;;;;;;;;;;;;;26.04;37.01;100753.34;5056302;28;19924;-73
2022/08/24 11:36:32;;;;;;;;;;;;;;;26.45;35.58;100747.72;5055940;28;20303;-73
2022/08/24 11:39:36;;;;;;;;;;;;;;;26.30;35.65;100757.56;5055849;28;19935;-72
2022/08/24 11:42:52;;;;;;;;;;;;;;;26.46;35.30;100748.56;5055965;28;19920;-73
2022/08/24 11:46:06;;;;;;;;;;;;;;;26.13;35.51;100749.63;5043843;28;20298;-72
2022/08/24 11:49:09;;;;;;;;;;;;;;;26.36;35.10;100749.66;5056026;28;19919;-73
2022/08/24 11:52:16;;;;;;;;;;;;;;;26.31;36.05;100743.13;5055798;28;19923;-73
2022/08/24 11:55:32;;;;;;;;;;;;;;;26.35;35.23;100739.09;5055031;28;20321;-73
2022/08/24 11:58:44;;;;;;;;;;;;;;;26.33;35.75;100736.59;5055634;28;19919;-73
2022/08/24 12:01:59;;;;;;;;;;;;;;;26.35;35.18;100723.00;5055992;28;19919;-73
2022/08/24 12:05:05;;;;;;;;;;;;;;;26.31;34.65;100730.56;5055730;28;19919;-73
2022/08/24 12:08:24;;;;;;;;;;;;;;;26.84;33.48;100726.16;5055300;28;20334;-73
2022/08/24 12:11:36;;;;;;;;;;;;;;;26.75;33.84;100721.88;5055745;28;20003;-73
2022/08/24 12:14:50;;;;;;;;;;;;;;;27.10;32.76;100728.44;5055574;28;19924;-73
2022/08/24 12:17:59;;;;;;;;;;;;;;;27.52;32.00;100729.69;5043133;28;19923;-73
2022/08/24 12:21:03;;;;;;;;;;;;;;;27.38;32.18;100716.25;5053721;28;20004;-73
2022/08/24 12:24:09;;;;;;;;;;;;;;;27.29;32.10;100724.41;5055045;28;19919;-73
2022/08/24 12:27:12;;;;;;;;;;;;;;;27.40;32.40;100716.91;5043078;28;19966;-72
2022/08/24 12:30:16;;;;;;;;;;;;;;;27.62;30.83;100723.19;5055284;28;20006;-73
2022/08/24 12:33:24;;;;;;;;;;;;;;;27.77;30.58;100710.59;5054470;28;19923;-73
2022/08/24 12:36:32;;;;;;;;;;;;;;;27.71;31.39;100705.94;5054091;28;19968;-73
2022/08/24 12:39:38;;;;;;;;;;;;;;;27.64;31.74;100705.88;5041502;28;19974;-73
2022/08/24 12:42:47;;;;;;;;;;;;;;;27.70;30.55;100709.66;5054474;28;19935;-73
2022/08/24 12:45:54;;;;;;;;;;;;;;;27.85;31.62;100707.78;5054129;28;19935;-73
2022/08/24 12:48:57;;;;;;;;;;;;;;;27.88;31.97;100702.03;5054337;28;19957;-72
2022/08/24 12:52:03;;;;;;;;;;;;;;;28.09;30.67;100708.50;5054658;28;19920;-72
2022/08/24 12:55:12;;;;;;;;;;;;;;;28.32;29.96;100703.75;5053897;28;19918;-73
2022/08/24 12:58:29;;;;;;;;;;;;;;;28.52;31.05;100704.78;5053830;28;19920;-73
2022/08/24 13:01:36;;;;;;;;;;;;;;;28.77;28.83;100696.31;5053762;28;20011;-73
2022/08/24 13:04:43;;;;;;;;;;;;;;;29.55;27.50;100696.22;5053565;28;20011;-73
2022/08/24 13:07:47;;;;;;;;;;;;;;;30.19;27.74;100692.31;5053421;28;19919;-73
2022/08/24 13:10:52;;;;;;;;;;;;;;;30.55;26.76;100687.38;5041231;28;19919;-72
2022/08/24 13:13:56;;;;;;;;;;;;;;;31.86;25.66;100683.75;5053466;28;19923;-73
2022/08/24 13:16:59;;;;;;;;;;;;;;;34.17;23.22;100683.59;5053526;28;19919;-73
2022/08/24 13:20:20;;;;;;;;;;;;;;;38.28;18.46;100669.53;5053354;28;19995;-73
2022/08/24 13:23:26;;;;;;;;;;;;;;;40.95;14.76;100656.38;5041305;28;19938;-73
2022/08/24 13:26:32;;;;;;;;;;;;;;;42.86;14.39;100661.13;5053330;28;19919;-73
2022/08/24 13:29:36;;;;;;;;;;;;;;;43.18;13.09;100649.47;5052368;28;19919;-73
2022/08/24 13:32:42;;;;;;;;;;;;;;;43.82;13.07;100654.63;5040292;28;19939;-73
2022/08/24 13:35:46;;;;;;;;;;;;;;;44.94;12.31;100652.66;5053389;28;19923;-74
2022/08/24 13:38:56;;;;;;;;;;;;;;;44.33;12.46;100649.13;5053897;28;20007;-74
2022/08/24 13:42:00;;;;;;;;;;;;;;;39.52;16.85;100645.41;5054176;28;19921;-73
2022/08/24 13:45:09;;;;;;;;;;;;;;;42.97;13.96;100646.09;5053911;28;20314;-73
2022/08/24 13:48:16;;;;;;;;;;;;;;;43.60;12.51;100639.53;5053644;28;19920;-73
2022/08/24 13:51:34;;;;;;;;;;;;;;;37.88;18.05;100649.78;5053245;28;19966;-73
2022/08/24 13:54:52;;;;;;;;;;;;;;;33.95;22.57;100650.72;5053694;28;19923;-73
2022/08/24 13:58:28;;;;;;;;;;;;;;;31.81;26.04;100653.00;5053773;28;19920;-73
2022/08/24 14:01:49;;;;;;;;;;;;;;;31.42;26.13;100647.56;5041355;28;19958;-73
2022/08/24 14:05:11;;;;;;;;;;;;;;;30.93;26.77;100654.34;5053328;28;20023;-73
2022/08/24 14:08:17;;;;;;;;;;;;;;;30.45;27.99;100656.44;5060142;28;19966;-73
2022/08/24 14:11:37;;;;;;;;;;;;;;;30.28;27.11;100656.00;5074038;28;19971;-72
2022/08/24 14:14:56;;;;;;;;;;;;;;;33.04;24.46;100650.59;5073921;28;19923;-72
2022/08/24 14:18:11;;;;;;;;;;;;;;;39.52;17.44;100634.47;5073421;28;20274;-72
2022/08/24 14:21:17;;;;;;;;;;;;;;;42.15;14.58;100624.13;5060523;28;19920;-73
2022/08/24 14:24:29;;;;;;;;;;;;;;;44.25;13.60;100629.66;5073155;28;20074;-72
2022/08/24 14:27:40;;;;;;;;;;;;;;;45.54;11.98;100625.97;5073364;28;20317;-73
2022/08/24 14:30:44;;;;;;;;;;;;;;;45.54;11.71;100620.44;5073667;28;19962;-73
2022/08/24 14:34:10;;;;;;;;;;;;;;;46.02;10.80;100625.41;5072431;28;19961;-74
2022/08/24 14:37:15;;;;;;;;;;;;;;;45.62;11.64;100628.81;5072757;28;20037;-74
2022/08/24 14:40:37;;;;;;;;;;;;;;;45.76;11.04;100619.66;5072262;28;19974;-73
2022/08/24 14:43:56;;;;;;;;;;;;;;;44.86;11.52;100620.25;5049987;28;19923;-74
2022/08/24 14:47:03;;;;;;;;;;;;;;;42.41;13.65;100622.00;5053283;28;19962;-74
2022/08/24 14:50:13;;;;;;;;;;;;;;;39.85;15.53;100611.25;5053528;28;19958;-74
2022/08/24 14:53:16;;;;;;;;;;;;;;;37.58;17.74;100623.00;5053226;28;19959;-74
2022/08/24 14:56:19;;;;;;;;;;;;;;;35.99;20.04;100616.38;5053974;28;20371;-74
2022/08/24 14:59:22;;;;;;;;;;;;;;;35.34;21.08;100610.25;5049652;28;19971;-74
2022/08/24 15:02:28;;;;;;;;;;;;;;;34.85;21.44;100615.22;5051131;28;20402;-74
2022/08/24 15:05:31;;;;;;;;;;;;;;;34.37;21.93;100613.56;5050881;28;19927;-74
2022/08/24 15:08:41;;;;;;;;;;;;;;;33.88;22.89;100618.25;5051204;28;19966;-74
2022/08/24 15:11:46;;;;;;;;;;;;;;;33.54;22.13;100611.69;5031452;28;19919;-74
2022/08/24 15:14:56;;;;;;;;;;;;;;;33.53;22.11;100616.25;5031344;28;19920;-74
2022/08/24 15:18:03;;;;;;;;;;;;;;;33.56;22.29;100610.38;5031189;28;19924;-74
2022/08/24 15:21:11;;;;;;;;;;;;;;;33.53;22.54;100610.84;5031244;28;19920;-75
2022/08/24 15:24:40;;;;;;;;;;;;;;;33.82;22.02;100616.47;5031135;28;19967;-74
2022/08/24 15:27:54;;;;;;;;;;;;;;;33.65;21.98;100613.59;5031670;28;20219;-72
2022/08/24 15:30:59;;;;;;;;;;;;;;;33.34;23.23;100603.75;5034486;28;19975;-73
2022/08/24 15:34:03;;;;;;;;;;;;;;;33.02;23.61;100606.66;5050826;28;19947;-73
2022/08/24 15:37:07;;;;;;;;;;;;;;;32.77;23.87;100590.47;5056963;28;20074;-74
2022/08/24 15:40:37;;;;;;;;;;;;;;;32.93;22.87;100604.44;5058142;28;19934;-73
2022/08/24 15:43:52;;;;;;;;;;;;;;;32.76;23.32;100593.38;5023276;28;19970;-73
2022/08/24 15:46:58;;;;;;;;;;;;;;;32.71;24.34;100594.06;5030925;28;19998;-74
2022/08/24 15:50:28;;;;;;;;;;;;;;;32.72;23.78;100592.19;5030746;28;19959;-73
2022/08/24 15:53:39;;;;;;;;;;;;;;;32.38;24.82;100597.88;5031408;28;19962;-73
2022/08/24 15:56:45;;;;;;;;;;;;;;;32.29;23.74;100592.97;5031295;28;19920;-74
2022/08/24 15:59:49;;;;;;;;;;;;;;;32.33;23.29;100599.63;5044455;28;19920;-73
2022/08/24 16:02:52;;;;;;;;;;;;;;;32.05;24.62;100595.47;5051149;28;19965;-74
2022/08/24 16:06:14;;;;;;;;;;;;;;;32.11;23.98;100597.28;5050272;28;19951;-73
2022/08/24 16:09:18;;;;;;;;;;;;;;;32.00;24.64;100597.97;5050661;28;20018;-74
2022/08/24 16:12:21;;;;;;;;;;;;;;;31.99;25.00;100593.63;5050915;28;19971;-74
2022/08/24 16:15:24;;;;;;;;;;;;;;;32.09;24.42;100596.66;5050421;28;20011;-73